Time;durP1;ratioP1;P1;durP2;ratioP2;P2;SDS_P1;SDS_P2;PMS_P1;PMS_P2;Temp;Humidity;BMP_temperature;BMP_pressure;BME280_temperature;BME280_humidity;BME280_pressure;Samples;Min_cycle;Max_cycle;Signal;HPM_P1;HPM_P2
2023/12/30 00:00:45;;;;;;;;;;;22.20;38.50;;;;;;5074235;28;20003;-58
2023/12/30 00:03:13;;;;;;;;;;;22.10;38.40;;;;;;5073744;28;19924;-56
2023/12/30 00:05:39;;;;;;;;;;;22.20;38.40;;;;;;5073955;28;20427;-63
2023/12/30 00:08:06;;;;;;;;;;;22.20;38.40;;;;;;5056271;28;20374;-56
2023/12/30 00:10:33;;;;;;;;;;;22.20;38.40;;;;;;5073761;28;19980;-56
2023/12/30 00:13:02;;;;;;;;;;;22.10;38.40;;;;;;5073623;28;19928;-56
2023/12/30 00:15:29;;;;;;;;;;;22.20;38.40;;;;;;5073704;28;19932;-55
2023/12/30 00:17:56;;;;;;;;;;;22.20;38.40;;;;;;5073438;28;20327;-58
2023/12/30 00:20:25;;;;;;;;;;;22.20;38.40;;;;;;5073913;28;20036;-55
2023/12/30 00:22:52;;;;;;;;;;;22.20;38.40;;;;;;5073503;28;19998;-55
2023/12/30 00:25:21;;;;;;;;;;;22.20;38.40;;;;;;5073237;28;19924;-55
2023/12/30 00:27:51;;;;;;;;;;;22.10;38.40;;;;;;5073564;28;19925;-58
2023/12/30 00:30:18;;;;;;;;;;;22.10;38.40;;;;;;5073390;28;20378;-55
2023/12/30 00:32:45;;;;;;;;;;;22.10;38.40;;;;;;5073558;28;19939;-56
2023/12/30 00:35:12;;;;;;;;;;;22.20;38.40;;;;;;5073258;28;19955;-55
2023/12/30 00:37:39;;;;;;;;;;;22.20;38.40;;;;;;5073268;28;20001;-56
2023/12/30 00:40:07;;;;;;;;;;;22.10;38.40;;;;;;5073346;28;19931;-54
2023/12/30 00:42:34;;;;;;;;;;;22.20;38.40;;;;;;5073338;28;19924;-57
2023/12/30 00:45:01;;;;;;;;;;;22.20;38.40;;;;;;5073047;28;19928;-56
2023/12/30 00:47:28;;;;;;;;;;;22.20;38.40;;;;;;5073314;28;19987;-56
2023/12/30 00:49:54;;;;;;;;;;;22.20;38.40;;;;;;5073117;28;19928;-56
2023/12/30 00:52:21;;;;;;;;;;;22.10;38.40;;;;;;5073346;28;20023;-55
2023/12/30 00:54:48;;;;;;;;;;;22.10;38.40;;;;;;5073277;28;19925;-55
2023/12/30 00:57:17;;;;;;;;;;;22.20;38.40;;;;;;5072898;28;19925;-57
2023/12/30 00:59:44;;;;;;;;;;;22.20;38.40;;;;;;5073076;28;20428;-54
2023/12/30 01:02:11;;;;;;;;;;;22.10;38.30;;;;;;5072834;28;19970;-55
2023/12/30 01:04:38;;;;;;;;;;;22.10;38.30;;;;;;5073447;28;19929;-56
2023/12/30 01:07:05;;;;;;;;;;;22.20;38.40;;;;;;5073249;28;19924;-56
2023/12/30 01:09:32;;;;;;;;;;;22.10;38.30;;;;;;5073165;28;19947;-55
2023/12/30 01:11:59;;;;;;;;;;;22.10;38.30;;;;;;5073401;28;19964;-55
2023/12/30 01:14:26;;;;;;;;;;;22.10;38.30;;;;;;5072961;28;19970;-55
2023/12/30 01:16:53;;;;;;;;;;;22.10;38.40;;;;;;5072810;28;19931;-56
2023/12/30 01:19:20;;;;;;;;;;;22.10;38.40;;;;;;5072988;28;20313;-55
2023/12/30 01:21:47;;;;;;;;;;;22.20;38.40;;;;;;5073338;28;19928;-55
2023/12/30 01:24:14;;;;;;;;;;;22.20;38.40;;;;;;5073161;28;19928;-53
2023/12/30 01:26:41;;;;;;;;;;;22.20;38.40;;;;;;5073051;28;19978;-54
2023/12/30 01:29:08;;;;;;;;;;;22.20;38.30;;;;;;5073000;28;19924;-57
2023/12/30 01:31:35;;;;;;;;;;;22.20;38.30;;;;;;5072757;28;19935;-54
2023/12/30 01:34:02;;;;;;;;;;;22.20;38.30;;;;;;5076920;28;19931;-54
2023/12/30 01:36:30;;;;;;;;;;;22.20;38.30;;;;;;5076543;28;19924;-56
2023/12/30 01:38:57;;;;;;;;;;;22.10;38.30;;;;;;5076559;28;19925;-56
2023/12/30 01:41:24;;;;;;;;;;;22.20;38.40;;;;;;5076909;28;19930;-56
2023/12/30 01:43:51;;;;;;;;;;;22.10;38.30;;;;;;5076537;28;19924;-53
2023/12/30 01:46:18;;;;;;;;;;;22.10;38.40;;;;;;5076809;28;19971;-54
2023/12/30 01:48:45;;;;;;;;;;;22.10;38.30;;;;;;5076225;28;19924;-55
2023/12/30 01:51:12;;;;;;;;;;;22.10;38.30;;;;;;5076250;28;19925;-55
2023/12/30 01:53:52;;;;;;;;;;;22.20;38.40;;;;;;5060628;28;19925;-55
2023/12/30 01:56:20;;;;;;;;;;;22.10;38.40;;;;;;5076624;28;19931;-55
2023/12/30 01:58:48;;;;;;;;;;;22.10;38.40;;;;;;5075787;28;19967;-56
2023/12/30 02:01:16;;;;;;;;;;;22.10;38.40;;;;;;5076252;28;19925;-51
2023/12/30 02:03:44;;;;;;;;;;;22.10;38.40;;;;;;5076340;28;19924;-56
2023/12/30 02:06:11;;;;;;;;;;;22.10;38.40;;;;;;5076093;28;19932;-54
2023/12/30 02:08:38;;;;;;;;;;;22.10;38.30;;;;;;5076449;28;19924;-55
2023/12/30 02:11:05;;;;;;;;;;;22.10;38.40;;;;;;5058644;28;19929;-53
2023/12/30 02:13:32;;;;;;;;;;;22.10;38.30;;;;;;5076000;28;19925;-52
2023/12/30 02:15:59;;;;;;;;;;;22.10;38.40;;;;;;5075949;28;19978;-56
2023/12/30 02:18:26;;;;;;;;;;;22.10;38.40;;;;;;5057937;28;19924;-58
2023/12/30 02:20:53;;;;;;;;;;;22.10;38.40;;;;;;5075983;28;19966;-57
2023/12/30 02:23:20;;;;;;;;;;;22.10;38.40;;;;;;5075919;28;19924;-57
2023/12/30 02:25:47;;;;;;;;;;;22.10;38.40;;;;;;5058056;28;19971;-56
2023/12/30 02:28:14;;;;;;;;;;;22.10;38.40;;;;;;5076063;28;20423;-56
2023/12/30 02:30:41;;;;;;;;;;;22.10;38.40;;;;;;5075845;28;19974;-56
2023/12/30 02:33:08;;;;;;;;;;;22.10;38.30;;;;;;5075580;28;20385;-56
2023/12/30 02:35:35;;;;;;;;;;;22.10;38.30;;;;;;5075843;28;19978;-54
2023/12/30 02:38:02;;;;;;;;;;;22.10;38.40;;;;;;5075981;28;19947;-56
2023/12/30 02:40:29;;;;;;;;;;;22.10;38.40;;;;;;5075405;28;19924;-58
2023/12/30 02:42:56;;;;;;;;;;;22.10;38.40;;;;;;5075287;28;19933;-55
2023/12/30 02:45:23;;;;;;;;;;;22.10;38.40;;;;;;5074663;28;19924;-55
2023/12/30 02:47:50;;;;;;;;;;;22.10;38.40;;;;;;5075435;28;20433;-54
2023/12/30 02:50:17;;;;;;;;;;;22.10;38.40;;;;;;5075256;28;20023;-56
2023/12/30 02:52:44;;;;;;;;;;;22.10;38.40;;;;;;5075450;28;20328;-56
2023/12/30 02:55:11;;;;;;;;;;;22.10;38.40;;;;;;5075077;28;19924;-55
2023/12/30 02:57:39;;;;;;;;;;;22.10;38.40;;;;;;5075170;28;19928;-57
2023/12/30 03:00:16;;;;;;;;;;;22.10;38.40;;;;;;5075065;28;20027;-55
2023/12/30 03:02:43;;;;;;;;;;;22.10;38.40;;;;;;5075365;28;19924;-54
2023/12/30 03:05:10;;;;;;;;;;;22.10;38.40;;;;;;5075051;28;19924;-55
2023/12/30 03:07:37;;;;;;;;;;;22.10;38.40;;;;;;5075406;28;20267;-53
2023/12/30 03:10:04;;;;;;;;;;;22.00;38.30;;;;;;5057690;28;19982;-55
2023/12/30 03:12:31;;;;;;;;;;;22.10;38.40;;;;;;5075258;28;19970;-55
2023/12/30 03:14:58;;;;;;;;;;;22.10;38.40;;;;;;5075074;28;19929;-55
2023/12/30 03:17:25;;;;;;;;;;;22.10;38.40;;;;;;5074641;28;20416;-53
2023/12/30 03:19:53;;;;;;;;;;;22.10;38.40;;;;;;5075056;28;19924;-55
2023/12/30 03:22:20;;;;;;;;;;;22.00;38.30;;;;;;5075071;28;19956;-56
2023/12/30 03:24:47;;;;;;;;;;;22.10;38.40;;;;;;5074540;28;20277;-57
2023/12/30 03:27:14;;;;;;;;;;;22.10;38.40;;;;;;5074491;28;19931;-55
2023/12/30 03:29:42;;;;;;;;;;;22.00;38.40;;;;;;5074619;28;20373;-55
2023/12/30 03:32:09;;;;;;;;;;;22.10;38.50;;;;;;5056585;28;19924;-57
2023/12/30 03:34:36;;;;;;;;;;;22.00;38.40;;;;;;5074420;28;19928;-52
2023/12/30 03:37:03;;;;;;;;;;;22.10;38.40;;;;;;5074452;28;19975;-55
2023/12/30 03:39:30;;;;;;;;;;;22.10;38.40;;;;;;5056273;28;19925;-54
2023/12/30 03:41:57;;;;;;;;;;;22.10;38.50;;;;;;5056677;28;19924;-55
2023/12/30 03:44:24;;;;;;;;;;;22.00;38.40;;;;;;5074142;28;19983;-54
2023/12/30 03:46:51;;;;;;;;;;;22.10;38.50;;;;;;5074374;28;19931;-55
2023/12/30 03:49:18;;;;;;;;;;;22.10;39.00;;;;;;5073962;28;19954;-55
2023/12/30 03:51:45;;;;;;;;;;;22.10;38.40;;;;;;5074485;28;20019;-57
2023/12/30 03:54:12;;;;;;;;;;;22.00;38.40;;;;;;5073982;28;19928;-55
2023/12/30 03:56:40;;;;;;;;;;;22.00;38.40;;;;;;5073915;28;20384;-54
2023/12/30 03:59:06;;;;;;;;;;;22.00;38.40;;;;;;5073826;28;19964;-55
2023/12/30 04:01:34;;;;;;;;;;;22.00;38.40;;;;;;5073840;28;19924;-55
2023/12/30 04:04:01;;;;;;;;;;;22.00;38.40;;;;;;5074103;28;19925;-56
2023/12/30 04:06:28;;;;;;;;;;;22.00;38.40;;;;;;5074046;28;19924;-56
2023/12/30 04:08:55;;;;;;;;;;;22.00;38.40;;;;;;5073546;28;19954;-54
2023/12/30 04:11:21;;;;;;;;;;;22.00;38.40;;;;;;5074000;28;20334;-55
2023/12/30 04:13:49;;;;;;;;;;;22.00;38.40;;;;;;5073636;28;20399;-55
2023/12/30 04:16:15;;;;;;;;;;;22.00;38.40;;;;;;5073478;28;19971;-52
2023/12/30 04:18:42;;;;;;;;;;;22.00;38.40;;;;;;5073317;28;19932;-56
2023/12/30 04:21:09;;;;;;;;;;;22.00;38.40;;;;;;5073447;28;19925;-58
2023/12/30 04:23:36;;;;;;;;;;;22.00;38.50;;;;;;5073293;28;19928;-58
2023/12/30 04:26:03;;;;;;;;;;;22.00;38.40;;;;;;5073511;28;20370;-58
2023/12/30 04:28:30;;;;;;;;;;;22.00;38.50;;;;;;5073467;28;19964;-56
2023/12/30 04:30:57;;;;;;;;;;;22.00;38.40;;;;;;5073425;28;19925;-56
2023/12/30 04:33:24;;;;;;;;;;;22.00;38.50;;;;;;5073426;28;20366;-56
2023/12/30 04:35:51;;;;;;;;;;;22.00;38.50;;;;;;5073391;28;19925;-55
2023/12/30 04:38:19;;;;;;;;;;;21.90;38.50;;;;;;5055820;28;19924;-56
2023/12/30 04:40:46;;;;;;;;;;;22.00;38.40;;;;;;5073748;28;19970;-56
2023/12/30 04:43:13;;;;;;;;;;;22.00;38.20;;;;;;5073175;28;19924;-55
2023/12/30 04:45:40;;;;;;;;;;;22.00;38.10;;;;;;5073147;28;19964;-56
2023/12/30 04:48:07;;;;;;;;;;;22.00;38.00;;;;;;5073140;28;19931;-55
2023/12/30 04:50:34;;;;;;;;;;;22.00;37.90;;;;;;5073407;28;19924;-54
2023/12/30 04:53:01;;;;;;;;;;;22.00;37.90;;;;;;5073382;28;19936;-54
2023/12/30 04:55:29;;;;;;;;;;;22.00;37.80;;;;;;5073255;28;19932;-55
2023/12/30 04:57:57;;;;;;;;;;;22.00;37.90;;;;;;5073324;28;20013;-55
2023/12/30 05:00:24;;;;;;;;;;;22.00;37.80;;;;;;5072892;28;20324;-55
2023/12/30 05:02:51;;;;;;;;;;;22.00;37.70;;;;;;5073291;28;20355;-55
2023/12/30 05:05:18;;;;;;;;;;;22.00;37.70;;;;;;5073149;28;19931;-56
2023/12/30 05:07:45;;;;;;;;;;;21.90;37.60;;;;;;5075089;28;20301;-55
2023/12/30 05:10:12;;;;;;;;;;;22.00;37.60;;;;;;5077502;28;20042;-56
2023/12/30 05:12:39;;;;;;;;;;;22.00;37.60;;;;;;5077442;28;19924;-55
2023/12/30 05:15:06;;;;;;;;;;;22.00;37.50;;;;;;5077295;28;19931;-56
2023/12/30 05:17:35;;;;;;;;;;;22.00;37.40;;;;;;5077085;28;19928;-56
2023/12/30 05:20:03;;;;;;;;;;;22.00;37.40;;;;;;5076806;28;19978;-54
2023/12/30 05:22:30;;;;;;;;;;;22.00;37.30;;;;;;5077301;28;19932;-56
2023/12/30 05:24:57;;;;;;;;;;;22.00;37.20;;;;;;5076971;28;19928;-54
2023/12/30 05:27:24;;;;;;;;;;;22.10;37.30;;;;;;5077110;28;19925;-55
2023/12/30 05:29:51;;;;;;;;;;;22.00;37.10;;;;;;5076689;28;19924;-56
2023/12/30 05:32:17;;;;;;;;;;;22.10;37.10;;;;;;5076894;28;19976;-56
2023/12/30 05:34:44;;;;;;;;;;;22.10;37.20;;;;;;5076827;28;19925;-52
2023/12/30 05:37:11;;;;;;;;;;;22.00;37.10;;;;;;5076741;28;19931;-56
2023/12/30 05:39:38;;;;;;;;;;;22.10;37.00;;;;;;5076541;28;19924;-55
2023/12/30 05:42:06;;;;;;;;;;;22.10;37.00;;;;;;5076983;28;19925;-53
2023/12/30 05:44:33;;;;;;;;;;;22.10;37.00;;;;;;5076811;28;20289;-53
2023/12/30 05:46:59;;;;;;;;;;;22.10;36.90;;;;;;5076326;28;19981;-55
2023/12/30 05:49:27;;;;;;;;;;;22.10;36.90;;;;;;5076193;28;19938;-53
2023/12/30 05:51:54;;;;;;;;;;;22.10;36.80;;;;;;5076776;28;19963;-55
2023/12/30 05:54:20;;;;;;;;;;;22.10;36.80;;;;;;5076608;28;19929;-55
2023/12/30 05:56:47;;;;;;;;;;;22.10;36.80;;;;;;5076268;28;19928;-50
2023/12/30 05:59:14;;;;;;;;;;;22.10;36.80;;;;;;5076265;28;19924;-55
2023/12/30 06:01:42;;;;;;;;;;;22.10;37.00;;;;;;5076227;28;19925;-57
2023/12/30 06:04:10;;;;;;;;;;;22.10;36.80;;;;;;5076375;28;20180;-54
2023/12/30 06:06:37;;;;;;;;;;;22.10;36.70;;;;;;5076369;28;20373;-56
2023/12/30 06:09:04;;;;;;;;;;;22.10;36.70;;;;;;5075923;28;19924;-54
2023/12/30 06:11:31;;;;;;;;;;;22.10;36.70;;;;;;5076165;28;20408;-55
2023/12/30 06:13:57;;;;;;;;;;;22.10;36.60;;;;;;5076108;28;19931;-54
2023/12/30 06:16:24;;;;;;;;;;;22.10;36.60;;;;;;5075796;28;19996;-56
2023/12/30 06:18:51;;;;;;;;;;;22.10;36.60;;;;;;5075318;28;19925;-57
2023/12/30 06:21:19;;;;;;;;;;;22.10;36.60;;;;;;5075892;28;19954;-57
2023/12/30 06:23:46;;;;;;;;;;;22.10;36.60;;;;;;5075505;28;19925;-57
2023/12/30 06:26:13;;;;;;;;;;;22.10;36.60;;;;;;5075761;28;20374;-56
2023/12/30 06:28:40;;;;;;;;;;;22.20;36.60;;;;;;5057980;28;19924;-56
2023/12/30 06:31:07;;;;;;;;;;;22.10;36.50;;;;;;5076187;28;20365;-58
2023/12/30 06:33:34;;;;;;;;;;;22.10;36.50;;;;;;5075568;28;19925;-56
2023/12/30 06:36:01;;;;;;;;;;;22.10;36.50;;;;;;5075510;28;20378;-55
2023/12/30 06:38:28;;;;;;;;;;;22.10;36.50;;;;;;5075570;28;19925;-56
2023/12/30 06:40:55;;;;;;;;;;;22.10;36.50;;;;;;5075526;28;19924;-56
2023/12/30 06:43:22;;;;;;;;;;;22.10;36.50;;;;;;5075704;28;19928;-56
2023/12/30 06:45:49;;;;;;;;;;;22.10;36.50;;;;;;5075193;28;19970;-55
2023/12/30 06:48:18;;;;;;;;;;;22.20;36.40;;;;;;5075762;28;19924;-56
2023/12/30 06:50:45;;;;;;;;;;;22.20;36.40;;;;;;5075191;28;19925;-55
2023/12/30 06:53:13;;;;;;;;;;;22.20;36.30;;;;;;5075320;28;19970;-57
2023/12/30 06:55:40;;;;;;;;;;;22.20;36.30;;;;;;5075061;28;20369;-55
2023/12/30 06:58:13;;;;;;;;;;;22.20;36.20;;;;;;5075238;28;19925;-56
2023/12/30 07:00:41;;;;;;;;;;;22.20;36.20;;;;;;5075056;28;20332;-56
2023/12/30 07:03:08;;;;;;;;;;;22.20;36.10;;;;;;5075563;28;19933;-56
2023/12/30 07:05:35;;;;;;;;;;;22.20;36.10;;;;;;5075106;28;20023;-56
2023/12/30 07:08:04;;;;;;;;;;;22.30;36.10;;;;;;5075016;28;19924;-56
2023/12/30 07:10:31;;;;;;;;;;;22.30;36.10;;;;;;5075077;28;19925;-54
2023/12/30 07:12:58;;;;;;;;;;;22.30;36.00;;;;;;5074898;28;19975;-56
2023/12/30 07:15:25;;;;;;;;;;;22.30;36.00;;;;;;5074609;28;19924;-55
2023/12/30 07:17:52;;;;;;;;;;;22.30;36.00;;;;;;5074732;28;19971;-56
2023/12/30 07:20:21;;;;;;;;;;;22.30;36.00;;;;;;5074116;28;20015;-55
2023/12/30 07:22:48;;;;;;;;;;;22.30;35.90;;;;;;5074623;28;19924;-53
2023/12/30 07:25:15;;;;;;;;;;;22.40;35.90;;;;;;5074635;28;20345;-58
2023/12/30 07:27:42;;;;;;;;;;;22.40;35.90;;;;;;5074795;28;19931;-55
2023/12/30 07:30:09;;;;;;;;;;;22.40;35.90;;;;;;5074086;28;19975;-57
2023/12/30 07:32:37;;;;;;;;;;;22.40;35.80;;;;;;5074497;28;20323;-50
2023/12/30 07:35:05;;;;;;;;;;;22.40;35.70;;;;;;5074205;28;19929;-53
2023/12/30 07:37:32;;;;;;;;;;;22.40;35.70;;;;;;5074621;28;19968;-55
2023/12/30 07:39:59;;;;;;;;;;;22.50;35.80;;;;;;5074534;28;20281;-53
2023/12/30 07:42:26;;;;;;;;;;;22.50;35.70;;;;;;5074557;28;20019;-53
2023/12/30 07:44:53;;;;;;;;;;;22.50;35.70;;;;;;5074088;28;20320;-54
2023/12/30 07:47:20;;;;;;;;;;;22.50;35.60;;;;;;5073992;28;19924;-55
2023/12/30 07:49:47;;;;;;;;;;;22.50;35.60;;;;;;5074242;28;19974;-53
2023/12/30 07:52:14;;;;;;;;;;;22.50;35.50;;;;;;5074066;28;19924;-55
2023/12/30 07:54:41;;;;;;;;;;;22.60;35.60;;;;;;5073994;28;19925;-56
2023/12/30 07:57:08;;;;;;;;;;;22.60;35.50;;;;;;5074786;28;20015;-54
2023/12/30 07:59:35;;;;;;;;;;;22.60;35.50;;;;;;5073758;28;19931;-53
2023/12/30 08:02:02;;;;;;;;;;;22.60;35.40;;;;;;5073965;28;19961;-55
2023/12/30 08:04:29;;;;;;;;;;;22.70;35.40;;;;;;5074085;28;19925;-54
2023/12/30 08:06:56;;;;;;;;;;;22.70;35.40;;;;;;5074182;28;19924;-54
2023/12/30 08:09:23;;;;;;;;;;;22.70;35.40;;;;;;5073563;28;19932;-56
2023/12/30 08:11:50;;;;;;;;;;;22.70;35.30;;;;;;5073698;28;20462;-53
2023/12/30 08:14:28;;;;;;;;;;;22.70;35.30;;;;;;5073620;28;19930;-55
2023/12/30 08:16:55;;;;;;;;;;;22.70;35.20;;;;;;5073665;28;19968;-54
2023/12/30 08:19:22;;;;;;;;;;;22.70;35.20;;;;;;5056050;28;20342;-56
2023/12/30 08:21:49;;;;;;;;;;;22.80;35.20;;;;;;5073712;28;20003;-57
2023/12/30 08:24:19;;;;;;;;;;;22.80;35.20;;;;;;5073481;28;19931;-56
2023/12/30 08:26:46;;;;;;;;;;;22.80;35.70;;;;;;5073794;28;19931;-57
2023/12/30 08:29:14;;;;;;;;;;;22.80;35.10;;;;;;5073411;28;19924;-56
2023/12/30 08:31:45;;;;;;;;;;;22.90;35.10;;;;;;5073559;28;20293;-56
2023/12/30 08:34:13;;;;;;;;;;;22.90;35.10;;;;;;5073449;28;20377;-56
2023/12/30 08:36:41;;;;;;;;;;;22.90;35.10;;;;;;5073647;28;20019;-56
2023/12/30 08:39:07;;;;;;;;;;;23.00;35.10;;;;;;5073484;28;20344;-56
2023/12/30 08:41:34;;;;;;;;;;;23.00;35.10;;;;;;5073949;28;19924;-56
2023/12/30 08:44:02;;;;;;;;;;;23.00;35.10;;;;;;5073433;28;19928;-56
2023/12/30 08:46:29;;;;;;;;;;;23.00;35.10;;;;;;5073611;28;20027;-58
2023/12/30 08:48:56;;;;;;;;;;;23.00;34.90;;;;;;5073369;28;19925;-55
2023/12/30 08:51:23;;;;;;;;;;;23.00;34.90;;;;;;5073175;28;19924;-57
2023/12/30 08:53:50;;;;;;;;;;;23.00;34.90;;;;;;5073272;28;19931;-55
2023/12/30 08:56:17;;;;;;;;;;;23.10;34.90;;;;;;5073311;28;19970;-56
2023/12/30 08:58:44;;;;;;;;;;;23.10;34.90;;;;;;5073197;28;20011;-56
2023/12/30 09:01:11;;;;;;;;;;;23.10;34.80;;;;;;5073234;28;19966;-55
2023/12/30 09:03:38;;;;;;;;;;;23.10;34.80;;;;;;5073295;28;19932;-55
2023/12/30 09:06:05;;;;;;;;;;;23.10;34.80;;;;;;5073486;28;19931;-55
2023/12/30 09:08:32;;;;;;;;;;;23.10;34.80;;;;;;5073149;28;19933;-56
2023/12/30 09:10:59;;;;;;;;;;;23.20;34.80;;;;;;5072891;28;19947;-56
2023/12/30 09:13:26;;;;;;;;;;;23.20;34.70;;;;;;5073318;28;19929;-56
2023/12/30 09:15:53;;;;;;;;;;;23.20;34.60;;;;;;5073070;28;19932;-55
2023/12/30 09:18:20;;;;;;;;;;;23.30;34.70;;;;;;5073162;28;20015;-54
2023/12/30 09:20:47;;;;;;;;;;;23.30;34.60;;;;;;5072840;28;19925;-56
2023/12/30 09:23:15;;;;;;;;;;;23.30;34.60;;;;;;5072839;28;19924;-53
2023/12/30 09:25:42;;;;;;;;;;;23.30;34.50;;;;;;5072609;28;19924;-56
2023/12/30 09:28:12;;;;;;;;;;;23.30;34.50;;;;;;5073146;28;20336;-54
2023/12/30 09:30:39;;;;;;;;;;;23.30;34.40;;;;;;5073077;28;19924;-56
2023/12/30 09:33:06;;;;;;;;;;;23.40;34.50;;;;;;5072798;28;19924;-53
2023/12/30 09:35:38;;;;;;;;;;;23.40;34.40;;;;;;5072760;28;19929;-55
2023/12/30 09:38:05;;;;;;;;;;;23.40;34.40;;;;;;5072771;28;19932;-54
2023/12/30 09:40:31;;;;;;;;;;;23.40;34.30;;;;;;5072792;28;19924;-55
2023/12/30 09:43:03;;;;;;;;;;;23.40;34.30;;;;;;5073196;28;20336;-54
2023/12/30 09:45:34;;;;;;;;;;;23.40;34.20;;;;;;5072375;28;19954;-57
2023/12/30 09:48:02;;;;;;;;;;;23.50;34.20;;;;;;5072405;28;19925;-56
2023/12/30 09:50:30;;;;;;;;;;;23.50;34.20;;;;;;5072887;28;20262;-56
2023/12/30 09:52:57;;;;;;;;;;;23.50;34.20;;;;;;5073229;28;20289;-54
2023/12/30 09:55:24;;;;;;;;;;;23.50;34.10;;;;;;5076526;28;20301;-57
2023/12/30 09:57:51;;;;;;;;;;;23.50;34.10;;;;;;5076384;28;19924;-56
2023/12/30 10:00:18;;;;;;;;;;;23.50;34.00;;;;;;5076345;28;19962;-55
2023/12/30 10:02:46;;;;;;;;;;;23.60;34.10;;;;;;5076208;28;19932;-55
2023/12/30 10:05:15;;;;;;;;;;;23.60;34.00;;;;;;5076143;28;19932;-56
2023/12/30 10:07:42;;;;;;;;;;;23.60;34.00;;;;;;5075960;28;19930;-56
2023/12/30 10:10:09;;;;;;;;;;;23.60;34.00;;;;;;5076311;28;19928;-56
2023/12/30 10:12:36;;;;;;;;;;;23.60;33.90;;;;;;5076177;28;19924;-57
2023/12/30 10:15:04;;;;;;;;;;;23.60;33.90;;;;;;5075689;28;20443;-57
2023/12/30 10:17:30;;;;;;;;;;;23.60;33.90;;;;;;5075879;28;19924;-55
2023/12/30 10:19:58;;;;;;;;;;;23.60;34.50;;;;;;5075624;28;20408;-53
2023/12/30 10:22:25;;;;;;;;;;;23.60;33.90;;;;;;5075894;28;19925;-54
2023/12/30 10:24:52;;;;;;;;;;;23.60;33.90;;;;;;5075968;28;19925;-56
2023/12/30 10:27:20;;;;;;;;;;;23.60;33.90;;;;;;5075742;28;19928;-55
2023/12/30 10:29:53;;;;;;;;;;;23.60;33.90;;;;;;5076020;28;20328;-56
2023/12/30 10:32:26;;;;;;;;;;;23.60;33.90;;;;;;5075665;28;20360;-55
2023/12/30 10:34:53;;;;;;;;;;;23.60;33.90;;;;;;5075772;28;19924;-56
2023/12/30 10:37:22;;;;;;;;;;;23.60;34.00;;;;;;5075746;28;19963;-55
2023/12/30 10:39:51;;;;;;;;;;;23.60;34.00;;;;;;5075770;28;19994;-55
2023/12/30 10:42:18;;;;;;;;;;;23.60;33.90;;;;;;5075874;28;20301;-56
2023/12/30 10:44:45;;;;;;;;;;;23.60;33.90;;;;;;5075169;28;19924;-55
2023/12/30 10:47:14;;;;;;;;;;;23.60;33.90;;;;;;5075607;28;19924;-55
2023/12/30 10:49:47;;;;;;;;;;;23.70;33.90;;;;;;5075630;28;20365;-57
2023/12/30 10:52:16;;;;;;;;;;;23.70;33.90;;;;;;5075373;28;20023;-57
2023/12/30 10:54:47;;;;;;;;;;;23.70;33.80;;;;;;5075540;28;19929;-57
2023/12/30 10:57:16;;;;;;;;;;;23.70;33.80;;;;;;5075245;28;19924;-56
2023/12/30 10:59:46;;;;;;;;;;;23.70;33.80;;;;;;5075163;28;19929;-57
2023/12/30 11:02:13;;;;;;;;;;;23.70;33.80;;;;;;5075294;28;20381;-56
2023/12/30 11:04:41;;;;;;;;;;;23.70;33.80;;;;;;5074157;28;19954;-57
2023/12/30 11:07:10;;;;;;;;;;;23.80;33.90;;;;;;5075238;28;19924;-56
2023/12/30 11:09:37;;;;;;;;;;;23.80;33.90;;;;;;5075049;28;19925;-56
2023/12/30 11:12:05;;;;;;;;;;;23.80;33.80;;;;;;5075167;28;19958;-56
2023/12/30 11:14:35;;;;;;;;;;;23.80;33.80;;;;;;5075148;28;19924;-56
2023/12/30 11:17:02;;;;;;;;;;;23.80;33.80;;;;;;5074651;28;19935;-57
2023/12/30 11:19:30;;;;;;;;;;;23.80;33.80;;;;;;5074935;28;19933;-56
2023/12/30 11:21:58;;;;;;;;;;;23.90;33.80;;;;;;5074830;28;19924;-56
2023/12/30 11:24:25;;;;;;;;;;;23.90;33.70;;;;;;5075051;28;19924;-57
2023/12/30 11:26:53;;;;;;;;;;;23.90;33.70;;;;;;5074608;28;19932;-56
2023/12/30 11:29:26;;;;;;;;;;;23.90;33.70;;;;;;5073690;28;20205;-55
2023/12/30 11:31:54;;;;;;;;;;;23.90;33.60;;;;;;5074800;28;19931;-55
2023/12/30 11:34:22;;;;;;;;;;;24.00;33.60;;;;;;5074661;28;19924;-56
2023/12/30 11:36:52;;;;;;;;;;;24.10;33.60;;;;;;5074430;28;20012;-56
2023/12/30 11:39:23;;;;;;;;;;;24.10;33.60;;;;;;5074218;28;19924;-57
2023/12/30 11:41:53;;;;;;;;;;;24.10;33.50;;;;;;5074543;28;20029;-57
2023/12/30 11:44:20;;;;;;;;;;;24.20;33.50;;;;;;5074483;28;19929;-56
2023/12/30 11:46:48;;;;;;;;;;;24.20;33.50;;;;;;5074318;28;19928;-55
2023/12/30 11:49:22;;;;;;;;;;;24.20;33.40;;;;;;5073890;28;19931;-54
2023/12/30 11:51:50;;;;;;;;;;;24.20;33.40;;;;;;5074238;28;19929;-56
2023/12/30 11:54:17;;;;;;;;;;;24.30;33.40;;;;;;5074471;28;19924;-56
2023/12/30 11:56:45;;;;;;;;;;;24.30;33.40;;;;;;5073589;28;19968;-56
2023/12/30 11:59:13;;;;;;;;;;;24.30;33.40;;;;;;5073262;28;20293;-56
2023/12/30 12:01:40;;;;;;;;;;;24.30;33.40;;;;;;5073834;28;20402;-56
2023/12/30 12:04:09;;;;;;;;;;;24.30;33.40;;;;;;5073873;28;19928;-57
2023/12/30 12:06:37;;;;;;;;;;;24.30;33.40;;;;;;5074287;28;19957;-56
2023/12/30 12:09:05;;;;;;;;;;;24.30;34.00;;;;;;5074101;28;20263;-55
2023/12/30 12:11:32;;;;;;;;;;;24.30;33.40;;;;;;5073986;28;19924;-56
2023/12/30 12:13:59;;;;;;;;;;;24.30;33.40;;;;;;5073663;28;19924;-54
2023/12/30 12:16:27;;;;;;;;;;;24.30;33.30;;;;;;5073411;28;19928;-55
2023/12/30 12:18:55;;;;;;;;;;;24.30;33.30;;;;;;5073900;28;19970;-56
2023/12/30 12:21:24;;;;;;;;;;;24.30;33.40;;;;;;5073414;28;19986;-56
2023/12/30 12:23:52;;;;;;;;;;;24.30;33.40;;;;;;5073827;28;19925;-57
2023/12/30 12:26:21;;;;;;;;;;;24.30;33.30;;;;;;5073290;28;19924;-56
2023/12/30 12:28:48;;;;;;;;;;;24.30;33.40;;;;;;5073656;28;19959;-56
2023/12/30 12:31:17;;;;;;;;;;;24.30;33.40;;;;;;5073466;28;20389;-56
2023/12/30 12:33:44;;;;;;;;;;;24.30;33.40;;;;;;5073461;28;19925;-56
2023/12/30 12:36:11;;;;;;;;;;;24.30;33.30;;;;;;5073736;28;19925;-57
2023/12/30 12:38:38;;;;;;;;;;;24.30;33.40;;;;;;5073057;28;19928;-56
2023/12/30 12:41:08;;;;;;;;;;;24.30;33.40;;;;;;5073353;28;20023;-57
2023/12/30 12:43:34;;;;;;;;;;;24.30;33.40;;;;;;5073242;28;19924;-56
2023/12/30 12:46:03;;;;;;;;;;;24.30;33.40;;;;;;5073748;28;19924;-55
2023/12/30 12:48:30;;;;;;;;;;;24.20;33.40;;;;;;5073118;28;19936;-57
2023/12/30 12:50:57;;;;;;;;;;;24.20;33.40;;;;;;5073275;28;19931;-55
2023/12/30 12:53:25;;;;;;;;;;;24.20;33.40;;;;;;5073287;28;20293;-56
2023/12/30 12:55:53;;;;;;;;;;;24.30;33.50;;;;;;5055952;28;19928;-57
2023/12/30 12:58:19;;;;;;;;;;;24.20;33.40;;;;;;5073413;28;19982;-56
2023/12/30 13:00:47;;;;;;;;;;;24.20;33.50;;;;;;5073151;28;19925;-56
2023/12/30 13:03:15;;;;;;;;;;;24.20;33.40;;;;;;5073733;28;19924;-56
2023/12/30 13:05:42;;;;;;;;;;;24.20;33.50;;;;;;5072972;28;20412;-54
2023/12/30 13:08:09;;;;;;;;;;;24.20;33.50;;;;;;5055676;28;19924;-55
2023/12/30 13:10:41;;;;;;;;;;;24.20;33.50;;;;;;5073424;28;19999;-55
2023/12/30 13:13:08;;;;;;;;;;;24.20;33.50;;;;;;5073300;28;19924;-57
2023/12/30 13:15:35;;;;;;;;;;;24.20;33.50;;;;;;5072871;28;19924;-56
2023/12/30 13:18:05;;;;;;;;;;;24.20;33.50;;;;;;5073063;28;19925;-56
2023/12/30 13:20:32;;;;;;;;;;;24.10;33.50;;;;;;5073094;28;20294;-56
2023/12/30 13:23:03;;;;;;;;;;;24.20;33.60;;;;;;5055424;28;19925;-55
2023/12/30 13:25:31;;;;;;;;;;;24.20;33.60;;;;;;5073076;28;20363;-56
2023/12/30 13:27:58;;;;;;;;;;;24.10;33.60;;;;;;5073238;28;19932;-56
2023/12/30 13:30:26;;;;;;;;;;;24.10;33.60;;;;;;5076727;28;19924;-57
2023/12/30 13:32:56;;;;;;;;;;;24.20;33.60;;;;;;5076854;28;19931;-55
2023/12/30 13:35:36;;;;;;;;;;;24.10;33.60;;;;;;5076513;28;19931;-56
2023/12/30 13:38:15;;;;;;;;;;;24.10;33.60;;;;;;5076761;28;19924;-57
2023/12/30 13:40:43;;;;;;;;;;;24.10;33.70;;;;;;5076659;28;19924;-58
2023/12/30 13:43:10;;;;;;;;;;;24.00;33.70;;;;;;5076485;28;19928;-57
2023/12/30 13:45:41;;;;;;;;;;;24.10;33.70;;;;;;5076431;28;19979;-56
2023/12/30 13:51:00;;;;;;;;;;;24.00;33.80;;;;;;5075785;28;19924;-56
2023/12/30 13:53:28;;;;;;;;;;;24.00;33.80;;;;;;5075107;28;20342;-55
2023/12/30 13:55:58;;;;;;;;;;;24.00;33.80;;;;;;5074528;28;19931;-58
2023/12/30 13:58:25;;;;;;;;;;;24.00;33.90;;;;;;5075456;28;19932;-57
2023/12/30 14:00:52;;;;;;;;;;;23.90;33.90;;;;;;5075363;28;20288;-56
2023/12/30 14:03:19;;;;;;;;;;;23.90;34.10;;;;;;5074946;28;19998;-57
2023/12/30 14:05:47;;;;;;;;;;;23.90;34.20;;;;;;5075698;28;19925;-56
2023/12/30 14:08:27;;;;;;;;;;;23.90;34.20;;;;;;5076027;28;19932;-55
2023/12/30 14:10:54;;;;;;;;;;;23.90;34.20;;;;;;5065960;28;19924;-56
2023/12/30 14:13:23;;;;;;;;;;;23.90;34.20;;;;;;5075016;28;19935;-54
2023/12/30 14:15:51;;;;;;;;;;;23.90;34.20;;;;;;5057898;28;20287;-54
2023/12/30 14:18:18;;;;;;;;;;;23.90;34.20;;;;;;5073875;28;20305;-53
2023/12/30 14:20:46;;;;;;;;;;;23.80;34.20;;;;;;5075010;28;19928;-52